Time;durP1;ratioP1;P1;durP2;ratioP2;P2;SDS_P1;SDS_P2;PMS_P1;PMS_P2;Temp;Humidity;BMP_temperature;BMP_pressure;BME280_temperature;BME280_humidity;BME280_pressure;Samples;Min_cycle;Max_cycle;Signal;HPM_P1;HPM_P2
2022/10/13 00:00:50;;;;;;;14.70;6.72;;;;;;;12.75;74.91;150857.28;1693910;83;22299;-66
2022/10/13 00:03:17;;;;;;;13.20;6.45;;;;;;;12.72;75.13;150849.48;1680864;83;21616;-62
2022/10/13 00:05:46;;;;;;;11.22;6.10;;;;;;;12.70;75.26;150844.25;1685291;83;21559;-62
2022/10/13 00:08:18;;;;;;;15.55;6.97;;;;;;;12.69;75.30;150842.97;1675655;83;20961;-62
2022/10/13 00:10:48;;;;;;;18.90;7.03;;;;;;;12.70;75.25;150844.25;1722474;80;21870;-62
2022/10/13 00:13:18;;;;;;;16.30;6.90;;;;;;;12.70;75.21;150844.25;1701681;84;20981;-66
2022/10/13 00:15:45;;;;;;;11.00;7.15;;;;;;;12.69;75.37;150841.64;1691415;83;21100;-66
2022/10/13 00:18:14;;;;;;;17.98;7.70;;;;;;;12.69;75.42;150841.64;1702847;83;21056;-66
2022/10/13 00:20:48;;;;;;;12.88;6.87;;;;;;;12.68;75.42;150840.37;1687181;83;21091;-66
2022/10/13 00:23:15;;;;;;;12.30;6.60;;;;;;;12.68;75.45;150840.37;1712575;83;21052;-65
2022/10/13 00:25:45;;;;;;;13.72;6.45;;;;;;;12.69;75.44;150841.64;1708454;82;21466;-66
2022/10/13 00:28:13;;;;;;;10.65;6.67;;;;;;;12.72;75.30;150849.48;1704140;83;21161;-66
2022/10/13 00:30:41;;;;;;;12.23;6.12;;;;;;;12.75;75.05;150857.28;1715599;83;21112;-66
2022/10/13 00:33:09;;;;;;;13.30;6.15;;;;;;;12.77;74.83;150862.47;1719427;83;21136;-66
2022/10/13 00:35:43;;;;;;;11.15;6.55;;;;;;;12.79;74.54;150866.34;1709104;82;21030;-65
2022/10/13 00:38:10;;;;;;;15.68;6.20;;;;;;;12.80;74.41;150868.94;1713011;83;21483;-66
2022/10/13 00:40:54;;;;;;;13.58;6.05;;;;;;;12.79;74.21;150866.34;1714150;83;21488;-65
2022/10/13 00:43:23;;;;;;;14.93;6.92;;;;;;;12.80;74.02;150870.27;1712743;83;20933;-65
2022/10/13 00:45:51;;;;;;;13.43;5.85;;;;;;;12.80;73.74;150870.27;1712954;82;21477;-66
2022/10/13 00:48:26;;;;;;;12.07;6.58;;;;;;;12.79;73.54;150867.66;1707190;83;21034;-66
2022/10/13 00:50:52;;;;;;;13.85;6.65;;;;;;;12.79;73.29;150866.34;1718005;83;21055;-66
2022/10/13 00:53:22;;;;;;;15.53;6.72;;;;;;;12.78;73.15;150863.75;1715114;83;21470;-66
2022/10/13 00:55:49;;;;;;;20.25;6.60;;;;;;;12.77;72.99;150861.16;1713896;83;21330;-66
2022/10/13 00:58:18;;;;;;;11.28;6.58;;;;;;;12.76;72.96;150859.88;1713637;83;21712;-61
2022/10/13 01:00:47;;;;;;;16.75;6.45;;;;;;;12.78;72.86;150863.75;1708657;83;21034;-62
2022/10/13 01:03:18;;;;;;;12.50;5.83;;;;;;;12.77;72.77;150862.47;1716415;83;21875;-61
2022/10/13 01:05:46;;;;;;;12.00;6.72;;;;;;;12.78;72.66;150865.06;1720154;83;21099;-62
2022/10/13 01:08:13;;;;;;;18.98;6.67;;;;;;;12.80;72.51;150870.27;1709345;83;21486;-61
2022/10/13 01:11:08;;;;;;;12.55;6.62;;;;;;;12.81;72.44;150871.53;1710356;83;21539;-62
2022/10/13 01:13:42;;;;;;;15.60;6.75;;;;;;;12.80;72.42;150870.27;1717504;83;21017;-62
2022/10/13 01:16:51;;;;;;;13.20;6.95;;;;;;;12.76;72.43;150859.88;1702638;83;21145;-61
2022/10/13 01:20:07;;;;;;;17.95;6.72;;;;;;;12.73;72.52;150852.08;1705533;83;21861;-61
2022/10/13 01:22:51;;;;;;;13.43;7.00;;;;;;;12.71;72.64;150846.84;1747308;80;21534;-61
2022/10/13 01:25:53;;;;;;;16.07;7.28;;;;;;;12.65;72.78;150831.25;1730201;80;21107;-61
2022/10/13 01:29:02;;;;;;;12.88;6.80;;;;;;;12.63;73.06;150826.06;1743843;80;21589;-63
2022/10/13 01:31:37;;;;;;;17.05;6.75;;;;;;;12.59;73.24;150818.28;1771060;80;21251;-61
2022/10/13 01:34:10;;;;;;;15.78;6.80;;;;;;;12.57;73.35;150811.75;1742219;80;21446;-61
2022/10/13 01:37:04;;;;;;;14.23;7.05;;;;;;;12.55;73.38;150807.89;1759732;80;21079;-64
2022/10/13 01:39:43;;;;;;;17.60;6.65;;;;;;;12.54;73.36;150805.28;1667630;85;21570;-62
2022/10/13 01:42:17;;;;;;;17.77;7.28;;;;;;;12.51;73.21;150797.50;1727552;80;21759;-61
2022/10/13 01:44:50;;;;;;;19.67;6.53;;;;;;;12.49;73.23;150792.31;1754178;80;21496;-61
2022/10/13 01:47:17;;;;;;;16.67;6.67;;;;;;;12.48;73.32;150789.66;1765757;79;21473;-61
2022/10/13 01:49:43;;;;;;;13.83;6.75;;;;;;;12.46;73.33;150784.47;1751481;80;21067;-62
2022/10/13 01:52:15;;;;;;;15.28;7.17;;;;;;;12.46;73.38;150785.80;1748400;80;21356;-60
2022/10/13 01:54:50;;;;;;;12.58;7.08;;;;;;;12.45;73.45;150783.19;1733228;80;21107;-60
2022/10/13 01:57:36;;;;;;;16.02;6.87;;;;;;;12.45;73.46;150783.19;1744052;80;21929;-61
2022/10/13 02:00:16;;;;;;;17.62;6.53;;;;;;;12.46;73.55;150784.47;1754414;80;21056;-61
2022/10/13 02:03:15;;;;;;;16.57;7.28;;;;;;;12.45;73.67;150783.19;1686722;83;21144;-62
2022/10/13 02:05:57;;;;;;;17.50;7.33;;;;;;;12.45;73.79;150781.88;1691221;82;21044;-61
2022/10/13 02:08:47;;;;;;;15.72;6.90;;;;;;;12.45;73.89;150781.88;1699445;82;21007;-61
2022/10/13 02:11:18;;;;;;;17.50;7.33;;;;;;;12.46;74.00;150784.47;1688292;82;21251;-61
2022/10/13 02:14:03;;;;;;;14.23;7.42;;;;;;;12.45;74.04;150783.19;1718413;82;21108;-62
2022/10/13 02:16:39;;;;;;;16.77;7.22;;;;;;;12.43;74.15;150776.67;1736203;80;21033;-61
2022/10/13 02:19:08;;;;;;;14.28;7.58;;;;;;;12.42;74.37;150774.08;1751508;80;21040;-61
2022/10/13 02:21:35;;;;;;;20.40;7.75;;;;;;;12.38;74.55;150763.69;1687471;83;20953;-61
2022/10/13 02:24:05;;;;;;;21.50;8.10;;;;;;;12.34;74.80;150753.31;1698753;82;21533;-61
2022/10/13 02:26:34;;;;;;;15.38;7.45;;;;;;;12.29;74.93;150741.59;1702392;82;22213;-62
2022/10/13 02:29:14;;;;;;;26.70;8.13;;;;;;;12.22;74.94;150724.70;1694688;82;21063;-61
2022/10/13 02:32:04;;;;;;;21.02;7.53;;;;;;;12.17;75.02;150711.72;1704195;82;21087;-61
2022/10/13 02:34:31;;;;;;;19.30;7.35;;;;;;;12.12;75.20;150700.02;1662843;86;21682;-61
2022/10/13 02:36:58;;;;;;;16.37;7.40;;;;;;;12.06;75.40;150683.16;1662704;86;21250;-66
2022/10/13 02:39:25;;;;;;;19.82;7.62;;;;;;;12.01;75.67;150671.47;1704892;83;21018;-67
2022/10/13 02:41:54;;;;;;;21.12;7.60;;;;;;;11.96;75.93;150659.70;1698684;83;21756;-66
2022/10/13 02:44:21;;;;;;;17.70;7.37;;;;;;;11.90;76.21;150644.13;1695342;83;21022;-66
2022/10/13 02:46:48;;;;;;;19.25;7.62;;;;;;;11.85;76.51;150632.44;1691752;83;21090;-66
2022/10/13 02:49:14;;;;;;;18.17;7.97;;;;;;;11.81;76.98;150620.72;1700604;83;21350;-66
2022/10/13 02:51:41;;;;;;;15.80;7.00;;;;;;;11.77;77.21;150610.34;1686596;83;21097;-67
2022/10/13 02:54:08;;;;;;;22.82;7.30;;;;;;;11.73;77.38;150602.56;1690393;83;21137;-66
2022/10/13 02:56:35;;;;;;;16.90;7.55;;;;;;;11.70;77.63;150593.45;1701567;83;21301;-67
2022/10/13 02:59:02;;;;;;;18.50;7.40;;;;;;;11.71;78.00;150597.38;1705778;83;21125;-61
2022/10/13 03:01:29;;;;;;;16.48;7.08;;;;;;;11.72;78.18;150599.97;1697908;83;21347;-62
2022/10/13 03:03:55;;;;;;;18.85;7.87;;;;;;;11.73;78.46;150602.56;1703173;83;21069;-61
2022/10/13 03:06:23;;;;;;;21.33;8.03;;;;;;;11.73;78.53;150602.56;1702355;83;21512;-62
2022/10/13 03:08:50;;;;;;;29.02;8.28;;;;;;;11.73;78.57;150601.28;1697179;83;21092;-62
2022/10/13 03:11:16;;;;;;;18.23;7.28;;;;;;;11.70;78.57;150594.78;1693026;83;21089;-62
2022/10/13 03:13:43;;;;;;;23.22;8.53;;;;;;;11.67;78.57;150586.98;1705386;83;22162;-61
2022/10/13 03:16:11;;;;;;;17.10;7.50;;;;;;;11.63;78.65;150575.28;1687556;83;21082;-65
2022/10/13 03:18:38;;;;;;;22.10;8.18;;;;;;;11.58;78.78;150564.91;1687778;83;21037;-65
2022/10/13 03:21:06;;;;;;;17.62;7.17;;;;;;;11.55;79.01;150557.12;1700769;83;21054;-66
2022/10/13 03:23:33;;;;;;;17.80;8.10;;;;;;;11.51;79.35;150546.73;1697805;83;21536;-65
2022/10/13 03:26:00;;;;;;;14.13;7.17;;;;;;;11.49;79.61;150541.50;1658332;85;22863;-65
2022/10/13 03:28:27;;;;;;;14.90;7.45;;;;;;;11.48;79.75;150538.91;1704731;83;20985;-66
2022/10/13 03:31:07;;;;;;;20.45;8.08;;;;;;;11.48;79.83;150537.63;1692850;83;21025;-66
2022/10/13 03:33:34;;;;;;;15.95;7.17;;;;;;;11.46;79.86;150535.03;1689145;83;21205;-62
2022/10/13 03:36:02;;;;;;;14.58;6.90;;;;;;;11.46;79.96;150533.72;1684020;84;21099;-62
2022/10/13 03:38:29;;;;;;;15.80;7.08;;;;;;;11.45;80.09;150531.12;1693944;84;21720;-61
2022/10/13 03:40:56;;;;;;;16.73;7.30;;;;;;;11.44;80.36;150529.84;1695311;83;21000;-66
2022/10/13 03:43:25;;;;;;;15.80;7.08;;;;;;;11.41;80.65;150522.06;1695384;84;21041;-66
2022/10/13 03:45:59;;;;;;;17.32;7.55;;;;;;;11.39;81.12;150516.88;1692306;83;21048;-65
2022/10/13 03:48:26;;;;;;;14.35;7.03;;;;;;;11.39;81.69;150515.56;1690909;83;21010;-66
2022/10/13 03:50:54;;;;;;;12.95;7.10;;;;;;;11.38;82.06;150512.95;1691410;83;21063;-61
2022/10/13 03:53:21;;;;;;;11.93;6.70;;;;;;;11.39;82.39;150515.56;1688950;82;21009;-62
2022/10/13 03:55:53;;;;;;;18.90;6.35;;;;;;;11.39;82.58;150516.88;1692832;83;21040;-61
2022/10/13 03:58:23;;;;;;;15.32;6.53;;;;;;;11.43;82.65;150525.94;1698459;83;21057;-61
2022/10/13 04:00:53;;;;;;;14.10;7.17;;;;;;;11.43;82.97;150527.25;1687663;83;21614;-62
2022/10/13 04:03:20;;;;;;;17.17;6.83;;;;;;;11.44;83.17;150528.53;1686074;84;21894;-65
2022/10/13 04:05:47;;;;;;;12.23;6.83;;;;;;;11.46;83.60;150533.72;1695188;83;21076;-67
2022/10/13 04:08:14;;;;;;;14.87;7.08;;;;;;;11.46;83.90;150535.03;1696902;83;21462;-66
2022/10/13 04:10:41;;;;;;;15.63;7.00;;;;;;;11.49;84.13;150540.22;1699796;83;21052;-66
2022/10/13 04:13:09;;;;;;;14.05;7.08;;;;;;;11.49;84.31;150540.22;1697563;84;21063;-62
2022/10/13 04:15:39;;;;;;;13.68;6.95;;;;;;;11.49;84.32;150541.50;1699096;83;21132;-61
2022/10/13 04:18:07;;;;;;;12.37;6.65;;;;;;;11.50;84.73;150542.81;1701801;83;21092;-61
2022/10/13 04:20:38;;;;;;;19.00;7.03;;;;;;;11.51;85.10;150545.42;1687795;84;21615;-62
2022/10/13 04:23:05;;;;;;;16.85;7.65;;;;;;;11.52;85.35;150548.02;1691885;83;21040;-66
2022/10/13 04:25:37;;;;;;;14.47;6.95;;;;;;;11.52;85.36;150548.02;1686757;84;21058;-63
2022/10/13 04:28:05;;;;;;;19.40;6.70;;;;;;;11.50;85.29;150542.81;1691436;84;21814;-65
2022/10/13 04:30:35;;;;;;;20.65;6.90;;;;;;;11.50;85.29;150544.14;1691583;83;22136;-66
2022/10/13 04:33:02;;;;;;;13.15;7.45;;;;;;;11.51;85.37;150545.42;1703156;81;21090;-66
2022/10/13 04:35:29;;;;;;;12.50;7.22;;;;;;;11.50;85.39;150542.81;1747206;81;21043;-67
2022/10/13 04:37:56;;;;;;;13.72;7.08;;;;;;;11.52;85.45;150548.02;1720994;83;21499;-66
2022/10/13 04:40:26;;;;;;;12.07;6.17;;;;;;;11.54;85.47;150553.20;1731327;81;21028;-66
2022/10/13 04:42:53;;;;;;;12.63;6.37;;;;;;;11.55;85.42;150555.80;1736326;81;21255;-62
2022/10/13 04:45:19;;;;;;;10.50;5.67;;;;;;;11.54;85.50;150553.20;1723461;81;21370;-61
2022/10/13 04:47:48;;;;;;;19.10;7.20;;;;;;;11.53;85.65;150550.61;1732620;81;21212;-62
2022/10/13 04:50:16;;;;;;;14.23;6.70;;;;;;;11.53;85.73;150550.61;1734190;81;21144;-61
2022/10/13 04:52:42;;;;;;;10.75;6.17;;;;;;;11.53;85.87;150550.61;1725816;81;21875;-62
2022/10/13 04:55:09;;;;;;;15.38;6.47;;;;;;;11.55;85.83;150557.12;1727560;81;21072;-62
2022/10/13 04:57:36;;;;;;;13.90;7.00;;;;;;;11.59;85.79;150566.17;1720960;81;21045;-66
2022/10/13 05:00:06;;;;;;;14.50;6.12;;;;;;;11.64;85.71;150579.20;1720724;81;21101;-67
2022/10/13 05:02:37;;;;;;;14.40;6.92;;;;;;;11.71;85.52;150597.38;1720971;83;21052;-66
2022/10/13 05:05:07;;;;;;;12.18;6.05;;;;;;;11.77;85.32;150611.66;1731571;81;21049;-67
2022/10/13 05:07:35;;;;;;;15.75;6.12;;;;;;;11.85;85.04;150631.16;1723315;81;21534;-62
2022/10/13 05:10:02;;;;;;;14.50;6.25;;;;;;;11.89;84.88;150641.53;1728309;81;21019;-62
2022/10/13 05:12:29;;;;;;;14.33;6.40;;;;;;;11.95;84.70;150655.84;1726140;81;21031;-61
2022/10/13 05:14:58;;;;;;;16.45;6.20;;;;;;;11.99;84.46;150667.50;1738967;81;21415;-65
2022/10/13 05:17:27;;;;;;;12.15;6.20;;;;;;;12.04;84.26;150680.53;1732768;81;21126;-66
2022/10/13 05:19:56;;;;;;;15.75;6.35;;;;;;;12.12;84.04;150698.73;1737670;81;21024;-66
2022/10/13 05:22:22;;;;;;;11.63;5.78;;;;;;;12.23;83.75;150727.30;1724955;81;21535;-66
2022/10/13 05:24:50;;;;;;;15.08;5.72;;;;;;;12.40;83.16;150768.89;1723412;81;21061;-66
2022/10/13 05:27:17;;;;;;;14.58;6.35;;;;;;;12.52;82.26;150798.77;1724249;81;21056;-66
2022/10/13 05:29:43;;;;;;;21.05;5.95;;;;;;;12.60;81.79;150820.88;1724565;81;21224;-61
2022/10/13 05:32:10;;;;;;;20.92;6.12;;;;;;;12.69;81.20;150841.64;1730838;81;21009;-67
2022/10/13 05:34:37;;;;;;;10.60;5.05;;;;;;;12.75;80.81;150857.28;1724516;81;21084;-62
2022/10/13 05:37:03;;;;;;;17.75;6.10;;;;;;;12.82;80.53;150875.45;1725233;81;21073;-61
2022/10/13 05:39:32;;;;;;;16.57;6.35;;;;;;;12.90;80.15;150894.97;1725047;81;20988;-61
2022/10/13 05:41:59;;;;;;;13.50;5.10;;;;;;;13.00;79.65;150920.94;1727389;81;21321;-65
2022/10/13 05:44:26;;;;;;;10.72;5.10;;;;;;;13.08;79.06;150939.17;1732748;81;21009;-66
2022/10/13 05:46:53;;;;;;;17.35;5.97;;;;;;;13.14;78.80;150956.03;1728858;81;21115;-66
2022/10/13 05:49:20;;;;;;;12.47;6.28;;;;;;;13.22;78.81;150974.27;1738008;81;21061;-67
2022/10/13 05:51:50;;;;;;;11.80;4.30;;;;;;;13.28;78.58;150989.86;1724930;81;21068;-67
2022/10/13 05:54:41;;;;;;;9.15;3.40;;;;;;;13.34;78.03;151005.44;1736981;81;21164;-67
2022/10/13 05:57:28;;;;;;;7.40;2.87;;;;;;;13.42;77.30;151026.28;1721904;81;21044;-67
2022/10/13 06:00:05;;;;;;;11.48;3.52;;;;;;;13.52;76.76;151049.72;1736009;81;21025;-66
2022/10/13 06:02:51;;;;;;;13.00;3.80;;;;;;;13.63;76.35;151078.34;1722013;81;21004;-67
2022/10/13 06:05:19;;;;;;;9.63;3.72;;;;;;;13.73;75.90;151104.34;1724932;81;21052;-66
2022/10/13 06:07:48;;;;;;;9.50;3.60;;;;;;;13.82;75.55;151125.17;1724314;81;21209;-66
2022/10/13 06:10:17;;;;;;;10.05;3.87;;;;;;;13.87;74.75;151138.17;1721343;81;21070;-66
2022/10/13 06:12:44;;;;;;;13.32;4.30;;;;;;;13.88;74.42;151140.77;1726482;81;20997;-67
2022/10/13 06:15:12;;;;;;;12.00;4.12;;;;;;;13.89;74.67;151143.38;1707785;83;21032;-66
2022/10/13 06:17:40;;;;;;;13.43;4.17;;;;;;;13.92;74.60;151149.84;1727730;81;21103;-66
2022/10/13 06:20:10;;;;;;;12.07;4.22;;;;;;;13.92;74.34;151149.84;1727509;81;21599;-67
2022/10/13 06:22:37;;;;;;;10.72;4.45;;;;;;;13.91;74.52;151148.56;1730848;81;21045;-67
2022/10/13 06:25:07;;;;;;;11.80;4.08;;;;;;;13.92;74.09;151149.84;1720818;81;21061;-67
2022/10/13 06:27:35;;;;;;;8.33;4.00;;;;;;;13.92;74.20;151149.84;1724836;81;21052;-67
2022/10/13 06:30:02;;;;;;;9.08;3.87;;;;;;;13.89;73.99;151143.38;1728179;81;21099;-67
2022/10/13 06:32:30;;;;;;;12.68;4.37;;;;;;;13.90;74.22;151147.25;1730377;81;40042;-67
2022/10/13 06:34:57;;;;;;;10.72;3.67;;;;;;;13.99;74.19;151169.36;1712887;81;21018;-67
2022/10/13 06:37:24;;;;;;;9.40;3.45;;;;;;;14.08;73.99;151191.48;1708992;82;21405;-66
2022/10/13 06:39:51;;;;;;;10.23;3.50;;;;;;;14.19;73.96;151218.81;1714253;82;21556;-67
2022/10/13 06:42:18;;;;;;;8.15;3.30;;;;;;;14.31;73.47;151250.05;1713148;82;21064;-67
2022/10/13 06:44:44;;;;;;;9.45;3.77;;;;;;;14.45;72.86;151283.84;1708146;82;21258;-66
2022/10/13 06:47:11;;;;;;;10.35;3.58;;;;;;;14.55;72.42;151309.91;1710116;82;21664;-67
2022/10/13 06:49:38;;;;;;;8.70;3.50;;;;;;;14.65;71.85;151334.63;1711101;82;21108;-66
2022/10/13 06:52:08;;;;;;;10.00;3.30;;;;;;;14.70;71.37;151347.62;1707775;82;21628;-66
2022/10/13 06:54:35;;;;;;;12.80;3.00;;;;;;;14.75;71.16;151360.69;1701758;81;21049;-67
2022/10/13 06:57:05;;;;;;;9.80;3.35;;;;;;;14.79;70.51;151369.81;1707746;82;21925;-65
2022/10/13 06:59:32;;;;;;;14.58;3.65;;;;;;;14.79;70.04;151369.81;1714829;82;21379;-66
2022/10/13 07:01:59;;;;;;;9.13;3.70;;;;;;;14.75;70.11;151359.41;1717532;82;21286;-66
2022/10/13 07:04:27;;;;;;;12.58;3.10;;;;;;;14.71;69.98;151349.00;1711991;82;21413;-66
2022/10/13 07:06:54;;;;;;;9.25;3.42;;;;;;;14.71;69.89;151349.00;1707391;82;21117;-66
2022/10/13 07:09:21;;;;;;;6.72;3.00;;;;;;;14.71;69.69;151349.00;1712970;82;21247;-67
2022/10/13 07:11:49;;;;;;;11.03;3.85;;;;;;;14.71;69.84;151349.00;1682880;84;21613;-66
2022/10/13 07:14:15;;;;;;;6.70;3.20;;;;;;;14.72;69.95;151351.61;1664925;84;21064;-65
2022/10/13 07:16:43;;;;;;;10.32;3.10;;;;;;;14.77;69.66;151364.61;1667553;84;21246;-66
2022/10/13 07:19:10;;;;;;;13.88;3.40;;;;;;;14.73;69.01;151355.48;1712302;82;21072;-66
2022/10/13 07:21:37;;;;;;;8.25;3.00;;;;;;;14.65;69.26;151334.63;1713376;82;21857;-66
2022/10/13 07:24:06;;;;;;;13.62;3.75;;;;;;;14.64;69.63;151332.03;1714217;82;21084;-67
2022/10/13 07:26:35;;;;;;;12.03;3.77;;;;;;;14.62;69.17;151326.83;1719346;82;21033;-67
2022/10/13 07:29:03;;;;;;;10.30;3.75;;;;;;;14.58;69.61;151316.38;1656372;85;21141;-66
2022/10/13 07:31:30;;;;;;;10.50;3.58;;;;;;;14.56;68.80;151312.50;1716477;82;21034;-67
2022/10/13 07:33:59;;;;;;;8.68;3.35;;;;;;;14.53;68.38;151304.70;1714528;82;21647;-64
2022/10/13 07:36:28;;;;;;;6.47;2.80;;;;;;;14.51;68.70;151299.50;1693927;83;21069;-66
2022/10/13 07:38:57;;;;;;;7.58;3.20;;;;;;;14.51;68.46;151298.19;1703052;82;21047;-66
2022/10/13 07:41:24;;;;;;;12.35;3.20;;;;;;;14.49;68.25;151294.30;1691084;82;21084;-66
2022/10/13 07:43:56;;;;;;;10.30;3.00;;;;;;;14.46;68.54;151286.45;1698263;82;21123;-66
2022/10/13 07:46:22;;;;;;;12.88;3.05;;;;;;;14.44;68.60;151282.58;1703334;82;21252;-66
2022/10/13 07:48:52;;;;;;;10.63;3.50;;;;;;;14.42;68.47;151277.37;1659898;84;21072;-66
2022/10/13 07:51:21;;;;;;;9.33;3.30;;;;;;;14.42;68.63;151277.37;1703918;82;21534;-66
2022/10/13 07:53:48;;;;;;;7.90;2.92;;;;;;;14.44;68.40;151281.25;1704784;82;21144;-66
2022/10/13 07:56:15;;;;;;;11.22;3.22;;;;;;;14.44;68.44;151281.25;1694470;83;21423;-66
2022/10/13 07:58:44;;;;;;;8.63;3.20;;;;;;;14.44;68.71;151281.25;1697407;82;21148;-66
2022/10/13 08:01:12;;;;;;;7.30;2.87;;;;;;;14.48;68.38;151291.70;1693713;82;21047;-67
2022/10/13 08:03:40;;;;;;;10.08;3.42;;;;;;;14.48;67.97;151291.70;1700319;82;21103;-66
2022/10/13 08:06:08;;;;;;;7.25;3.17;;;;;;;14.49;67.40;151294.30;1705004;82;21075;-66
2022/10/13 08:08:35;;;;;;;9.00;3.15;;;;;;;14.54;67.58;151307.30;1701894;82;21481;-66
2022/10/13 08:11:09;;;;;;;10.98;3.27;;;;;;;14.61;67.04;151324.23;1648628;85;21223;-66
2022/10/13 08:13:36;;;;;;;12.15;3.60;;;;;;;14.66;66.61;151335.91;1703838;82;21041;-66
2022/10/13 08:16:17;;;;;;;10.58;3.30;;;;;;;14.63;66.37;151328.11;1699762;82;21060;-66
2022/10/13 08:18:44;;;;;;;8.38;3.33;;;;;;;14.61;66.18;151325.50;1690468;82;21100;-66
2022/10/13 08:21:13;;;;;;;9.48;3.05;;;;;;;14.64;65.29;151330.70;1693168;82;21079;-66
2022/10/13 08:23:58;;;;;;;9.40;3.20;;;;;;;14.66;65.45;151335.91;1699801;82;21108;-66
2022/10/13 08:26:26;;;;;;;8.30;3.70;;;;;;;14.68;65.88;151341.11;1692372;83;21071;-61
2022/10/13 08:28:54;;;;;;;8.98;3.30;;;;;;;14.70;65.57;151346.31;1649966;85;21061;-62
2022/10/13 08:31:21;;;;;;;10.50;3.52;;;;;;;14.67;65.43;151339.83;1648938;85;21127;-62
2022/10/13 08:33:47;;;;;;;8.48;3.40;;;;;;;14.66;65.21;151337.23;1648750;85;21181;-62
2022/10/13 08:36:15;;;;;;;12.13;3.35;;;;;;;14.65;64.68;151334.63;1651807;85;21809;-62
2022/10/13 08:38:43;;;;;;;7.40;3.02;;;;;;;14.61;64.46;151325.50;1668753;85;21055;-63
2022/10/13 08:41:17;;;;;;;8.90;3.05;;;;;;;14.60;64.36;151322.91;1718542;82;21030;-64
2022/10/13 08:43:52;;;;;;;9.33;2.92;;;;;;;14.63;64.33;151329.44;1717831;82;21545;-62
2022/10/13 08:46:26;;;;;;;;;;;;;;;14.67;64.49;151338.50;1708746;82;21032;-62
2022/10/13 08:48:55;;;;;;;6.67;2.50;;;;;;;14.71;63.62;151349.00;1711815;82;21925;-61
2022/10/13 08:51:23;;;;;;;10.60;2.85;;;;;;;14.72;63.27;151352.88;1720052;82;21029;-66
2022/10/13 08:53:51;;;;;;;8.65;2.90;;;;;;;14.72;63.49;151351.61;1719143;82;21530;-67
2022/10/13 08:56:24;;;;;;;4.85;2.47;;;;;;;14.76;63.51;151362.02;1719400;82;21750;-66
2022/10/13 08:58:53;;;;;;;8.63;2.77;;;;;;;14.82;62.50;151377.62;1713066;82;21141;-67
2022/10/13 09:01:24;;;;;;;7.75;2.90;;;;;;;14.86;62.37;151388.03;1721541;82;21968;-68
2022/10/13 09:04:24;;;;;;;9.08;2.83;;;;;;;14.90;62.13;151398.42;1714275;82;21393;-67
2022/10/13 09:07:05;;;;;;;5.92;2.55;;;;;;;14.96;62.25;151412.75;1717095;82;21068;-73
2022/10/13 09:09:35;;;;;;;7.03;2.90;;;;;;;15.06;62.32;151437.48;1712962;82;21064;-74
2022/10/13 09:12:03;;;;;;;9.65;3.08;;;;;;;15.15;62.25;151460.95;1717463;82;21072;-73
2022/10/13 09:14:34;;;;;;;7.62;3.12;;;;;;;15.26;62.44;151486.97;1720339;82;21089;-74
2022/10/13 09:17:22;;;;;;;5.42;2.70;;;;;;;15.40;62.09;151522.11;1711447;82;21482;-74
2022/10/13 09:20:11;;;;;;;7.85;2.77;;;;;;;15.51;61.67;151549.47;1678041;84;21078;-73
2022/10/13 09:22:39;;;;;;;10.93;3.15;;;;;;;15.58;61.12;151567.67;1654481;85;21113;-74
2022/10/13 09:25:11;;;;;;;6.85;2.67;;;;;;;15.62;60.12;151578.12;1671226;84;21103;-69
2022/10/13 09:27:52;;;;;;;9.45;2.92;;;;;;;15.66;59.75;151587.22;1730481;81;21047;-67
2022/10/13 09:30:37;;;;;;;11.80;2.98;;;;;;;15.64;59.61;151583.34;1724286;81;21515;-70
2022/10/13 09:33:12;;;;;;;7.47;2.65;;;;;;;15.60;59.44;151574.22;1724890;81;21033;-69
2022/10/13 09:35:57;;;;;;;10.43;3.22;;;;;;;15.58;59.60;151567.67;1731089;81;21485;-69
2022/10/13 09:38:24;;;;;;;10.18;2.35;;;;;;;15.61;59.27;151575.53;1730356;81;21063;-70
2022/10/13 09:41:14;;;;;;;5.10;2.22;;;;;;;15.67;59.45;151591.14;1730873;81;21227;-71
2022/10/13 09:43:53;;;;;;;8.65;2.30;;;;;;;15.76;58.33;151614.56;1736291;81;21168;-70
2022/10/13 09:46:46;;;;;;;9.08;2.70;;;;;;;15.85;57.98;151636.72;1689452;83;21521;-70
2022/10/13 09:49:34;;;;;;;5.62;2.75;;;;;;;15.99;57.91;151671.92;1685330;83;21036;-71
2022/10/13 09:52:15;;;;;;;6.42;2.72;;;;;;;16.09;56.25;151696.69;1727715;81;21497;-71
2022/10/13 09:54:50;;;;;;;9.85;3.80;;;;;;;16.06;56.10;151688.88;1720851;81;21223;-68
2022/10/13 09:57:43;;;;;;;8.63;4.72;;;;;;;15.99;55.61;151671.92;1728549;81;21353;-68
2022/10/13 10:00:20;;;;;;;7.78;3.25;;;;;;;15.93;55.82;151656.31;1731290;81;21308;-69
2022/10/13 10:03:07;;;;;;;6.45;2.92;;;;;;;15.90;55.11;151648.50;1728494;81;21051;-67
2022/10/13 10:05:54;;;;;;;7.75;3.00;;;;;;;15.90;55.06;151648.50;1723744;81;21048;-69
2022/10/13 10:08:45;;;;;;;7.10;2.87;;;;;;;15.92;55.65;151653.70;1734157;81;21482;-67
2022/10/13 10:11:16;;;;;;;7.50;2.87;;;;;;;15.95;56.26;151661.52;1730418;81;21030;-68
2022/10/13 10:13:43;;;;;;;5.75;2.70;;;;;;;15.97;55.66;151665.44;1721480;81;21050;-67
2022/10/13 10:16:30;;;;;;;9.68;2.42;;;;;;;15.95;55.81;151661.52;1731966;81;21085;-68
2022/10/13 10:19:01;;;;;;;9.98;2.85;;;;;;;15.93;56.12;151655.03;1682005;83;21100;-67
2022/10/13 10:21:45;;;;;;;7.22;2.72;;;;;;;15.94;55.89;151658.91;1726546;81;21566;-67
2022/10/13 10:25:01;;;;;;;7.42;2.95;;;;;;;15.92;56.06;151653.70;1707781;81;21143;-67
2022/10/13 10:27:39;;;;;;;7.83;2.70;;;;;;;15.91;55.95;151651.11;1679171;81;21067;-67
2022/10/13 10:30:15;;;;;;;;;;;;;;;15.91;55.83;151651.11;1725639;81;21061;-68
2022/10/13 10:33:08;;;;;;;8.35;3.12;;;;;;;15.87;55.99;151640.64;1728325;81;20196;-69
2022/10/13 10:36:03;;;;;;;9.35;2.95;;;;;;;15.86;56.51;151638.05;1724648;81;21138;-69
2022/10/13 10:38:50;;;;;;;9.50;3.00;;;;;;;15.87;55.48;151640.64;1710961;82;21099;-68
2022/10/13 10:41:46;;;;;;;12.28;3.02;;;;;;;15.85;55.30;151635.44;1716962;82;21064;-67
2022/10/13 10:44:22;;;;;;;;;;;;;;;15.87;55.67;151640.64;1710534;82;21035;-66
2022/10/13 10:46:51;;;;;;;8.83;3.22;;;;;;;15.90;55.40;151648.50;1719325;82;20134;-68
2022/10/13 10:49:23;;;;;;;9.48;2.58;;;;;;;15.93;55.29;151655.03;1703428;82;21418;-67
2022/10/13 10:51:50;;;;;;;8.08;3.02;;;;;;;15.94;54.73;151657.64;1722448;82;21040;-67
2022/10/13 10:54:41;;;;;;;10.68;2.92;;;;;;;15.96;54.40;151662.84;1714423;82;21565;-68
2022/10/13 10:57:34;;;;;;;8.05;2.65;;;;;;;15.92;54.71;151653.70;1713028;82;21054;-67
2022/10/13 11:00:12;;;;;;;6.03;2.50;;;;;;;15.95;55.26;151661.52;1713577;82;21050;-68
2022/10/13 11:03:05;;;;;;;6.65;2.70;;;;;;;16.00;55.18;151674.53;1709792;82;21082;-67
2022/10/13 11:06:02;;;;;;;7.17;2.30;;;;;;;16.02;55.33;151679.73;1711243;82;21552;-68
2022/10/13 11:08:40;;;;;;;5.37;2.15;;;;;;;16.03;55.39;151682.39;1717428;82;21052;-67
2022/10/13 11:11:28;;;;;;;5.90;2.60;;;;;;;16.08;54.87;151694.08;1708850;82;21639;-68
2022/10/13 11:14:03;;;;;;;10.28;2.50;;;;;;;16.10;53.78;151699.28;1720193;82;21283;-67
2022/10/13 11:16:43;;;;;;;6.50;2.30;;;;;;;16.13;53.76;151705.81;1708286;82;22082;-68
2022/10/13 11:19:35;;;;;;;6.40;2.08;;;;;;;16.18;54.09;151718.84;1711090;82;21039;-68
2022/10/13 11:22:07;;;;;;;8.00;2.42;;;;;;;16.22;53.70;151727.97;1715831;82;21098;-67
2022/10/13 11:24:44;;;;;;;7.78;2.50;;;;;;;16.19;53.82;151721.44;1717144;82;21080;-68
2022/10/13 11:27:35;;;;;;;13.22;2.70;;;;;;;16.18;53.71;151718.84;1710286;82;21093;-69
2022/10/13 11:30:04;;;;;;;15.65;2.62;;;;;;;16.15;53.83;151712.34;1719186;82;21306;-68
2022/10/13 11:35:15;;;;;;;6.08;2.70;;;;;;;16.16;53.37;151714.95;1710303;82;21402;-69
2022/10/13 11:38:04;;;;;;;7.65;2.20;;;;;;;16.19;52.29;151721.44;1710346;82;21137;-68
2022/10/13 11:40:48;;;;;;;9.80;2.70;;;;;;;16.21;52.41;151726.64;1708524;82;21037;-68
2022/10/13 11:43:23;;;;;;;8.63;2.20;;;;;;;16.25;52.03;151737.11;1711911;82;21931;-68
2022/10/13 11:46:08;;;;;;;9.75;2.37;;;;;;;16.26;51.86;151739.70;1713037;82;21060;-68
2022/10/13 11:49:19;;;;;;;6.58;2.17;;;;;;;16.26;51.71;151739.70;1664109;84;21021;-69